Time;durP1;ratioP1;P1;durP2;ratioP2;P2;SDS_P1;SDS_P2;PMS_P1;PMS_P2;Temp;Humidity;BMP_temperature;BMP_pressure;BME280_temperature;BME280_humidity;BME280_pressure;Samples;Min_cycle;Max_cycle;Signal;HPM_P1;HPM_P2
2021/08/31 00:01:22;;;;;;;11.98;8.18;;;410.20;2048.00;;;;;;5053557;28;20033;-64
2021/08/31 00:03:48;;;;;;;16.08;9.02;;;410.10;2073.60;;;;;;5034959;28;20033;-70
2021/08/31 00:06:14;;;;;;;14.15;9.82;;;410.10;2073.60;;;;;;5053574;28;20363;-64
2021/08/31 00:08:39;;;;;;;11.48;7.65;;;410.10;2048.00;;;;;;5053850;28;20021;-70
2021/08/31 00:11:05;;;;;;;11.38;8.13;;;410.10;2073.60;;;;;;5035533;28;20041;-64
2021/08/31 00:13:31;;;;;;;10.35;7.75;;;410.00;2073.60;;;;;;5035597;28;20095;-68
2021/08/31 00:15:56;;;;;;;9.05;7.80;;;410.00;2073.60;;;;;;5053548;28;20029;-65
2021/08/31 00:18:22;;;;;;;11.70;8.05;;;410.00;2073.60;;;;;;5053293;28;20067;-64
2021/08/31 00:20:48;;;;;;;15.82;7.50;;;410.00;2073.60;;;;;;5053502;28;20029;-69
2021/08/31 00:23:14;;;;;;;9.50;7.75;;;410.00;2073.60;;;;;;5053661;28;20025;-64
2021/08/31 00:25:39;;;;;;;14.10;8.55;;;410.00;2073.60;;;;;;5035246;28;20032;-69
2021/08/31 00:28:05;;;;;;;11.30;8.18;;;410.00;2073.60;;;;;;5052758;28;20025;-64
2021/08/31 00:30:31;;;;;;;13.93;7.47;;;410.00;2073.60;;;;;;5052863;28;20556;-64
2021/08/31 00:32:57;;;;;;;10.15;7.70;;;410.00;2073.60;;;;;;5053316;28;20035;-64
2021/08/31 00:35:22;;;;;;;9.60;7.70;;;410.00;2073.60;;;;;;5052749;28;20033;-64
2021/08/31 00:37:48;;;;;;;11.45;7.28;;;410.00;2073.60;;;;;;5052878;28;20025;-64
2021/08/31 00:40:14;;;;;;;12.25;8.23;;;409.90;2099.20;;;;;;5053078;28;20032;-69
2021/08/31 00:42:40;;;;;;;17.25;8.52;;;409.90;2099.20;;;;;;5052819;28;20025;-69
2021/08/31 00:45:06;;;;;;;13.68;9.07;;;409.80;2099.20;;;;;;5052848;28;20029;-69
2021/08/31 00:47:32;;;;;;;13.75;9.07;;;409.80;2099.20;;;;;;5051858;28;20029;-67
2021/08/31 00:49:57;;;;;;;14.27;8.38;;;409.80;2099.20;;;;;;5034869;28;20378;-64
2021/08/31 00:52:23;;;;;;;14.18;8.13;;;409.80;2099.20;;;;;;5053058;28;20102;-64
2021/08/31 00:54:49;;;;;;;13.30;8.40;;;409.80;2099.20;;;;;;5035086;28;20168;-63
2021/08/31 00:57:15;;;;;;;10.95;7.50;;;409.80;2099.20;;;;;;5053126;28;20029;-70
2021/08/31 00:59:41;;;;;;;14.25;7.78;;;409.80;2099.20;;;;;;5053095;28;20456;-69
2021/08/31 01:02:07;;;;;;;10.48;7.53;;;409.70;2099.20;;;;;;5053209;28;20067;-65
2021/08/31 01:04:33;;;;;;;8.60;7.70;;;409.80;2099.20;;;;;;5053072;28;20371;-64
2021/08/31 01:06:59;;;;;;;17.55;7.50;;;409.80;2099.20;;;;;;5052929;28;20056;-65
2021/08/31 01:09:27;;;;;;;15.18;6.78;;;409.80;2073.60;;;;;;5053333;28;20027;-69
2021/08/31 01:11:54;;;;;;;9.73;6.85;;;409.80;2099.20;;;;;;5055686;28;20031;-70
2021/08/31 01:14:20;;;;;;;11.45;7.05;;;409.80;2099.20;;;;;;5056666;28;20108;-64
2021/08/31 01:16:47;;;;;;;10.68;7.43;;;409.80;2099.20;;;;;;5056580;28;20378;-64
2021/08/31 01:19:13;;;;;;;10.32;7.35;;;409.80;2099.20;;;;;;5056492;28;20025;-68
2021/08/31 01:21:40;;;;;;;16.50;8.13;;;409.80;2099.20;;;;;;5056256;28;20540;-64
2021/08/31 01:24:05;;;;;;;9.32;6.65;;;409.80;2099.20;;;;;;5056264;28;20025;-64
2021/08/31 01:26:31;;;;;;;10.88;7.32;;;409.80;2099.20;;;;;;5055806;28;20071;-64
2021/08/31 01:28:59;;;;;;;12.00;8.05;;;409.70;2099.20;;;;;;5056338;28;20071;-65
2021/08/31 01:31:25;;;;;;;9.10;6.72;;;409.70;2099.20;;;;;;5056298;28;20049;-64
2021/08/31 01:33:51;;;;;;;8.55;7.40;;;409.70;2099.20;;;;;;5056137;28;20017;-69
2021/08/31 01:36:23;;;;;;;9.68;7.05;;;409.70;2099.20;;;;;;5038148;28;20041;-65
2021/08/31 01:38:56;;;;;;;10.93;6.80;;;409.70;2099.20;;;;;;5056143;28;20029;-68
2021/08/31 01:41:23;;;;;;;10.10;7.35;;;409.70;2099.20;;;;;;5055925;28;20044;-65
2021/08/31 01:43:49;;;;;;;14.00;7.22;;;409.60;2099.20;;;;;;5056015;28;20017;-65
2021/08/31 01:46:15;;;;;;;10.75;7.13;;;409.60;2099.20;;;;;;5056227;28;20100;-69
2021/08/31 01:48:41;;;;;;;9.43;6.45;;;409.60;2099.20;;;;;;5055957;28;20021;-64
2021/08/31 01:51:07;;;;;;;12.07;7.25;;;409.60;2099.20;;;;;;5037938;28;20510;-65
2021/08/31 01:53:34;;;;;;;9.88;6.82;;;409.60;2099.20;;;;;;5056157;28;20052;-69
2021/08/31 01:56:00;;;;;;;7.55;6.65;;;409.60;2073.60;;;;;;5055514;28;20029;-69
2021/08/31 01:58:25;;;;;;;9.88;6.72;;;409.60;2073.60;;;;;;5055702;28;20028;-67
2021/08/31 02:00:51;;;;;;;10.77;6.72;;;409.60;2099.20;;;;;;5055650;28;20028;-65
2021/08/31 02:03:17;;;;;;;8.07;6.80;;;384.90;2073.60;;;;;;5055620;28;20074;-67
2021/08/31 02:05:43;;;;;;;12.70;7.72;;;409.60;2099.20;;;;;;5055342;28;20037;-69
2021/08/31 02:08:09;;;;;;;12.68;7.63;;;409.60;2099.20;;;;;;5055325;28;20072;-69
2021/08/31 02:10:34;;;;;;;9.40;7.55;;;384.80;2073.60;;;;;;5055776;28;20029;-64
2021/08/31 02:13:00;;;;;;;13.88;8.63;;;384.80;2099.20;;;;;;5055532;28;20021;-69
2021/08/31 02:15:26;;;;;;;9.90;8.38;;;384.80;2073.60;;;;;;5055057;28;20518;-68
2021/08/31 02:17:52;;;;;;;12.20;9.18;;;384.80;2099.20;;;;;;5055090;28;20463;-70
2021/08/31 02:20:17;;;;;;;17.08;11.35;;;384.80;2099.20;;;;;;5055276;28;20033;-67
2021/08/31 02:22:43;;;;;;;17.23;12.32;;;384.90;2099.20;;;;;;5054043;28;20033;-65
2021/08/31 02:25:09;;;;;;;25.52;13.15;;;409.60;2124.80;;;;;;5055496;28;20029;-65
2021/08/31 02:27:36;;;;;;;20.10;13.88;;;409.60;2124.80;;;;;;5055190;28;20036;-69
2021/08/31 02:30:03;;;;;;;29.83;17.13;;;409.60;2124.80;;;;;;5055189;28;20113;-70
2021/08/31 02:32:28;;;;;;;25.88;17.17;;;409.60;2124.80;;;;;;5036952;28;20028;-65
2021/08/31 02:34:54;;;;;;;22.55;13.00;;;409.60;2099.20;;;;;;5037200;28;20033;-70
2021/08/31 02:37:20;;;;;;;13.05;7.38;;;409.70;2073.60;;;;;;5054657;28;20064;-66
2021/08/31 02:39:46;;;;;;;11.45;6.55;;;409.70;2073.60;;;;;;5054939;28;20017;-67
2021/08/31 02:42:11;;;;;;;7.55;5.45;;;409.70;2048.00;;;;;;5054869;28;20051;-67
2021/08/31 02:44:37;;;;;;;10.73;7.28;;;409.70;2048.00;;;;;;5036983;28;20494;-68
2021/08/31 02:47:03;;;;;;;12.38;8.55;;;409.70;2048.00;;;;;;5054841;28;20040;-68
2021/08/31 02:49:29;;;;;;;13.60;8.60;;;409.70;2048.00;;;;;;5054841;28;20057;-66
2021/08/31 02:51:55;;;;;;;12.02;8.63;;;409.70;2048.00;;;;;;5036677;28;20132;-68
2021/08/31 02:54:20;;;;;;;14.43;10.13;;;409.70;2048.00;;;;;;5036740;28;20029;-68
2021/08/31 02:56:46;;;;;;;18.75;12.38;;;409.80;2048.00;;;;;;5054507;28;20033;-69
2021/08/31 02:59:13;;;;;;;21.20;13.75;;;409.80;2048.00;;;;;;5054334;28;20382;-65
2021/08/31 03:02:04;;;;;;;17.30;11.93;;;409.90;2022.40;;;;;;5054540;28;20068;-65
2021/08/31 03:04:25;;;;;;;16.60;11.50;;;409.90;2022.40;;;;;;5054261;28;20116;-69
2021/08/31 03:06:51;;;;;;;15.10;10.52;;;409.90;2022.40;;;;;;5036193;28;20037;-64
2021/08/31 03:09:17;;;;;;;18.83;12.45;;;409.90;2048.00;;;;;;5054456;28;20375;-69
2021/08/31 03:11:43;;;;;;;23.23;14.02;;;409.90;2048.00;;;;;;5054230;28;20054;-70
2021/08/31 03:14:08;;;;;;;27.65;15.52;;;409.90;2048.00;;;;;;5054365;28;20017;-69
2021/08/31 03:16:34;;;;;;;23.90;13.88;;;410.00;2048.00;;;;;;5054276;28;20484;-69
2021/08/31 03:19:00;;;;;;;36.45;14.13;;;410.00;2048.00;;;;;;5054019;28;20031;-69
2021/08/31 03:21:26;;;;;;;19.25;11.43;;;410.00;2048.00;;;;;;5054156;28;20033;-68
2021/08/31 03:23:52;;;;;;;16.83;11.43;;;410.10;2022.40;;;;;;5053984;28;20374;-65
2021/08/31 03:26:18;;;;;;;16.48;11.32;;;410.00;2048.00;;;;;;5053998;28;20025;-64
2021/08/31 03:28:43;;;;;;;15.27;11.88;;;410.00;2048.00;;;;;;5054142;28;20363;-69
2021/08/31 03:31:09;;;;;;;15.82;10.93;;;410.10;2048.00;;;;;;5036124;28;20039;-70
2021/08/31 03:33:35;;;;;;;17.92;13.75;;;410.10;2048.00;;;;;;5053571;28;20025;-65
2021/08/31 03:36:04;;;;;;;21.02;14.50;;;410.10;2022.40;;;;;;5053718;28;20025;-64
2021/08/31 03:38:30;;;;;;;25.13;14.95;;;410.10;2022.40;;;;;;5053586;28;20079;-68
2021/08/31 03:40:56;;;;;;;21.63;14.10;;;410.10;2022.40;;;;;;5053314;28;20040;-70
2021/08/31 03:43:21;;;;;;;19.85;13.38;;;410.10;2022.40;;;;;;5053949;28;20048;-65
2021/08/31 03:45:47;;;;;;;18.85;13.00;;;410.10;2022.40;;;;;;5053846;28;20029;-64
2021/08/31 03:48:13;;;;;;;16.90;11.93;;;410.10;2022.40;;;;;;5053814;28;20171;-69
2021/08/31 03:50:38;;;;;;;17.25;11.52;;;410.10;2022.40;;;;;;5053601;28;20036;-64
2021/08/31 03:53:04;;;;;;;19.50;12.50;;;410.20;2022.40;;;;;;5053871;28;20053;-67
2021/08/31 03:55:30;;;;;;;16.85;11.82;;;410.10;2022.40;;;;;;5052838;28;20066;-69
2021/08/31 03:57:56;;;;;;;15.00;11.32;;;410.20;2022.40;;;;;;5053692;28;20021;-70
2021/08/31 04:00:24;;;;;;;16.73;10.60;;;410.20;2022.40;;;;;;5053917;28;20079;-64
2021/08/31 04:02:49;;;;;;;16.35;10.38;;;410.30;2022.40;;;;;;5053641;28;20053;-68
2021/08/31 04:05:15;;;;;;;11.52;8.60;;;410.30;2022.40;;;;;;5053454;28;20079;-67
2021/08/31 04:07:41;;;;;;;13.48;7.72;;;410.30;2022.40;;;;;;5053288;28;20041;-66
2021/08/31 04:10:07;;;;;;;13.30;8.40;;;410.40;2022.40;;;;;;5053444;28;20018;-64
2021/08/31 04:12:33;;;;;;;17.27;10.32;;;410.40;2022.40;;;;;;5053564;28;20536;-65
2021/08/31 04:14:58;;;;;;;13.50;10.57;;;410.40;2022.40;;;;;;5053431;28;20030;-69
2021/08/31 04:17:24;;;;;;;17.42;11.82;;;410.40;2022.40;;;;;;5052952;28;20029;-64
2021/08/31 04:19:50;;;;;;;13.57;10.45;;;410.50;2022.40;;;;;;5053681;28;20363;-64
2021/08/31 04:22:15;;;;;;;9.88;8.60;;;410.50;2022.40;;;;;;5035390;28;20037;-69
2021/08/31 04:24:41;;;;;;;10.75;7.40;;;435.20;2048.00;;;;;;5053220;28;20029;-64
2021/08/31 04:27:07;;;;;;;13.80;6.60;;;435.20;2022.40;;;;;;5034992;28;20033;-69
2021/08/31 04:29:32;;;;;;;8.23;7.05;;;435.20;2022.40;;;;;;5053360;28;20528;-69
2021/08/31 04:31:58;;;;;;;13.48;6.90;;;435.20;2048.00;;;;;;5053227;28;20025;-69
2021/08/31 04:34:23;;;;;;;7.13;6.40;;;435.20;2048.00;;;;;;5053026;28;20025;-66
2021/08/31 04:36:49;;;;;;;10.15;7.90;;;435.20;2048.00;;;;;;5053172;28;20108;-71
2021/08/31 04:39:15;;;;;;;10.25;8.48;;;435.30;2048.00;;;;;;5052843;28;20025;-71
2021/08/31 04:41:41;;;;;;;9.35;7.82;;;435.30;2048.00;;;;;;5052650;28;20029;-64
2021/08/31 04:44:07;;;;;;;11.20;8.15;;;435.30;2048.00;;;;;;5034941;28;20123;-70
2021/08/31 04:46:32;;;;;;;13.32;8.60;;;435.30;2048.00;;;;;;5055348;28;20029;-65
2021/08/31 04:48:58;;;;;;;9.27;7.47;;;435.30;2048.00;;;;;;5056543;28;20104;-67
2021/08/31 04:51:24;;;;;;;9.13;6.80;;;435.40;2048.00;;;;;;5056910;28;20029;-72
2021/08/31 04:53:49;;;;;;;11.02;7.00;;;435.30;2048.00;;;;;;5056894;28;20027;-72
2021/08/31 04:56:15;;;;;;;12.75;6.90;;;435.40;2048.00;;;;;;5056802;28;20409;-73
2021/08/31 04:58:41;;;;;;;9.40;7.03;;;435.40;2048.00;;;;;;5056580;28;20100;-72
2021/08/31 05:01:07;;;;;;;9.38;6.20;;;435.40;2048.00;;;;;;5037945;28;20045;-71
2021/08/31 05:03:35;;;;;;;7.20;5.80;;;435.50;2048.00;;;;;;5056172;28;20074;-66
2021/08/31 05:06:00;;;;;;;9.73;8.05;;;435.40;2048.00;;;;;;5056449;28;20036;-65
2021/08/31 05:08:26;;;;;;;15.48;11.43;;;435.50;2048.00;;;;;;5038281;28;20048;-73
2021/08/31 05:10:52;;;;;;;12.38;10.05;;;435.50;2073.60;;;;;;5056652;28;20466;-67
2021/08/31 05:13:17;;;;;;;9.77;8.07;;;435.40;2048.00;;;;;;5056364;28;20025;-66
2021/08/31 05:15:44;;;;;;;9.05;7.55;;;435.50;2073.60;;;;;;5056340;28;20108;-73
2021/08/31 05:18:10;;;;;;;12.70;6.65;;;435.50;2073.60;;;;;;5056267;28;20031;-74
2021/08/31 05:20:35;;;;;;;8.48;5.97;;;435.50;2073.60;;;;;;5056328;28;20037;-67
2021/08/31 05:23:01;;;;;;;7.97;6.45;;;435.50;2073.60;;;;;;5056180;28;20025;-68
2021/08/31 05:25:27;;;;;;;8.68;6.03;;;435.60;2073.60;;;;;;5056346;28;20036;-72
2021/08/31 05:27:56;;;;;;;8.27;6.75;;;435.50;2099.20;;;;;;5056196;28;20021;-73
2021/08/31 05:30:21;;;;;;;13.32;9.60;;;435.60;2099.20;;;;;;5056279;28;20383;-72
2021/08/31 05:32:47;;;;;;;10.43;8.23;;;435.60;2099.20;;;;;;5055597;28;20029;-68
2021/08/31 05:35:13;;;;;;;10.93;6.50;;;435.60;2099.20;;;;;;5056214;28;20367;-73
2021/08/31 05:37:39;;;;;;;16.88;7.18;;;435.60;2099.20;;;;;;5055881;28;20082;-74
2021/08/31 05:40:07;;;;;;;13.43;6.25;;;435.70;2099.20;;;;;;5056035;28;20032;-74
2021/08/31 05:42:33;;;;;;;9.43;5.15;;;435.60;2099.20;;;;;;5036951;28;20063;-72
2021/08/31 05:44:59;;;;;;;11.60;6.22;;;435.60;2099.20;;;;;;5054853;28;20009;-69
2021/08/31 05:47:25;;;;;;;8.85;5.85;;;435.70;2124.80;;;;;;5054691;28;20025;-66
2021/08/31 05:49:50;;;;;;;8.52;5.38;;;435.70;2124.80;;;;;;5054648;28;20052;-66
2021/08/31 05:52:16;;;;;;;12.18;5.40;;;435.70;2124.80;;;;;;5036757;28;20486;-68
2021/08/31 05:54:42;;;;;;;5.93;5.22;;;435.70;2150.40;;;;;;5054654;28;20075;-73
2021/08/31 05:57:11;;;;;;;5.95;4.97;;;435.70;2150.40;;;;;;5054924;28;20155;-70
2021/08/31 05:59:40;;;;;;;6.97;5.18;;;435.70;2150.40;;;;;;5037726;28;20086;-67
2021/08/31 06:02:10;;;;;;;6.05;5.43;;;435.80;2150.40;;;;;;5055895;28;20037;-74
2021/08/31 06:04:37;;;;;;;17.70;8.32;;;435.80;2150.40;;;;;;5037728;28;20108;-74
2021/08/31 06:07:10;;;;;;;8.13;5.95;;;435.90;2150.40;;;;;;5037206;28;20060;-65
2021/08/31 06:09:37;;;;;;;11.77;6.20;;;435.90;2150.40;;;;;;5055317;28;20536;-73
2021/08/31 06:12:08;;;;;;;7.32;5.47;;;435.90;2176.00;;;;;;5037250;28;20123;-65
2021/08/31 06:14:34;;;;;;;7.57;5.70;;;436.00;2150.40;;;;;;5055398;28;20017;-65
2021/08/31 06:17:01;;;;;;;8.25;5.53;;;436.00;2150.40;;;;;;5055357;28;20036;-73
2021/08/31 06:19:26;;;;;;;7.30;4.97;;;436.10;2150.40;;;;;;5055381;28;20029;-65
2021/08/31 06:21:52;;;;;;;5.90;4.60;;;436.10;2150.40;;;;;;5036841;28;20386;-73
2021/08/31 06:24:18;;;;;;;5.63;5.03;;;460.80;2176.00;;;;;;5054854;28;20103;-72
2021/08/31 06:26:44;;;;;;;5.60;5.00;;;460.80;2176.00;;;;;;5054921;28;20029;-66
2021/08/31 06:29:10;;;;;;;5.80;5.10;;;460.90;2176.00;;;;;;5054949;28;20025;-66
2021/08/31 06:31:35;;;;;;;10.25;7.05;;;460.90;2176.00;;;;;;5037154;28;20108;-74
2021/08/31 06:34:01;;;;;;;10.57;7.05;;;460.90;2176.00;;;;;;5055031;28;20021;-71
2021/08/31 06:36:27;;;;;;;6.95;6.20;;;460.90;2176.00;;;;;;5055110;28;20486;-72
2021/08/31 06:38:52;;;;;;;14.55;6.13;;;461.00;2176.00;;;;;;5054903;28;20067;-74
2021/08/31 06:41:18;;;;;;;11.13;5.60;;;461.00;2176.00;;;;;;5054302;28;20032;-66
2021/08/31 06:43:45;;;;;;;8.10;5.15;;;461.10;2176.00;;;;;;5054849;28;20463;-73
2021/08/31 06:46:13;;;;;;;11.07;5.68;;;461.10;2176.00;;;;;;5054214;28;20390;-66
2021/08/31 06:48:44;;;;;;;6.85;5.47;;;461.20;2150.40;;;;;;5054266;28;20119;-67
2021/08/31 06:51:11;;;;;;;5.75;5.18;;;461.20;2176.00;;;;;;5054291;28;20028;-66
2021/08/31 06:53:38;;;;;;;10.27;5.20;;;461.20;2150.40;;;;;;5054197;28;20025;-66
2021/08/31 06:56:04;;;;;;;9.07;6.65;;;461.30;2150.40;;;;;;5054528;28;20044;-65
2021/08/31 06:58:30;;;;;;;12.63;7.38;;;461.30;2150.40;;;;;;5054315;28;20017;-66
2021/08/31 07:00:55;;;;;;;8.10;7.28;;;461.30;2150.40;;;;;;5054569;28;20029;-74
2021/08/31 07:03:21;;;;;;;8.95;7.97;;;461.50;2150.40;;;;;;5054237;28;20501;-68
2021/08/31 07:05:47;;;;;;;8.13;7.28;;;461.60;2150.40;;;;;;5054279;28;20056;-74
2021/08/31 07:08:13;;;;;;;10.38;8.35;;;461.60;2124.80;;;;;;5053363;28;20037;-66
2021/08/31 07:10:38;;;;;;;28.13;19.83;;;486.50;2124.80;;;;;;5054329;28;20104;-68
2021/08/31 07:13:04;;;;;;;24.67;15.07;;;486.80;2099.20;;;;;;5054371;28;20017;-72
2021/08/31 07:15:30;;;;;;;20.88;13.63;;;486.90;2099.20;;;;;;5053899;28;20378;-72
2021/08/31 07:17:56;;;;;;;24.00;13.75;;;487.10;2073.60;;;;;;5053714;28;20086;-72
2021/08/31 07:20:22;;;;;;;25.42;18.33;;;487.10;2073.60;;;;;;5053581;28;20116;-71
2021/08/31 07:22:47;;;;;;;13.15;8.52;;;487.10;2048.00;;;;;;5053138;28;20024;-64
2021/08/31 07:25:13;;;;;;;8.25;7.18;;;487.20;2048.00;;;;;;5052787;28;20029;-64
2021/08/31 07:27:39;;;;;;;26.80;12.02;;;487.30;2048.00;;;;;;5052587;28;20367;-65
2021/08/31 07:30:05;;;;;;;26.85;12.43;;;512.00;2048.00;;;;;;5053132;28;20407;-67
2021/08/31 07:32:31;;;;;;;15.40;7.78;;;512.30;2022.40;;;;;;5051436;28;20116;-64
2021/08/31 07:34:57;;;;;;;14.65;6.78;;;512.60;2022.40;;;;;;5048347;28;20436;-69
2021/08/31 07:37:22;;;;;;;8.50;6.13;;;512.80;1996.80;;;;;;5051761;28;20025;-72
2021/08/31 07:39:48;;;;;;;5.93;4.95;;;537.60;1996.80;;;;;;5052507;28;20029;-72
2021/08/31 07:42:14;;;;;;;10.40;5.00;;;537.80;1971.20;;;;;;5053776;28;20044;-69
2021/08/31 07:44:39;;;;;;;13.13;7.13;;;537.90;1971.20;;;;;;5051822;28;20400;-72
2021/08/31 07:47:05;;;;;;;15.55;9.63;;;538.00;1945.60;;;;;;5051953;28;20025;-70
2021/08/31 07:49:32;;;;;;;13.43;9.27;;;538.10;1945.60;;;;;;5052852;28;20036;-69
2021/08/31 07:51:57;;;;;;;8.02;4.65;;;538.20;1945.60;;;;;;5053049;28;20112;-72
2021/08/31 07:54:23;;;;;;;11.07;3.70;;;538.30;1920.00;;;;;;5053495;28;20057;-72
2021/08/31 07:56:49;;;;;;;8.98;3.58;;;563.20;1945.60;;;;;;5052320;28;20090;-70
2021/08/31 07:59:15;;;;;;;8.45;3.40;;;563.30;1894.40;;;;;;5052223;28;20479;-71
2021/08/31 08:01:41;;;;;;;11.02;3.50;;;563.40;1894.40;;;;;;5052018;28;20065;-71
2021/08/31 08:04:07;;;;;;;5.50;3.50;;;563.40;1894.40;;;;;;5052515;28;20017;-73
2021/08/31 08:06:33;;;;;;;28.13;5.32;;;563.50;1868.80;;;;;;5052484;28;20131;-66
2021/08/31 08:08:59;;;;;;;22.45;10.25;;;563.40;1894.40;;;;;;5053338;28;20498;-65
2021/08/31 08:11:25;;;;;;;32.05;15.32;;;563.40;1843.20;;;;;;5053453;28;20053;-68
2021/08/31 08:13:51;;;;;;;24.38;11.40;;;563.40;1843.20;;;;;;5035121;28;20549;-66
2021/08/31 08:16:16;;;;;;;64.40;12.80;;;563.40;1843.20;;;;;;5053216;28;20022;-70
2021/08/31 08:18:42;;;;;;;68.10;13.70;;;563.40;1817.60;;;;;;5053397;28;20028;-67
2021/08/31 08:21:08;;;;;;;28.48;5.53;;;563.40;1817.60;;;;;;5057017;28;20040;-67
2021/08/31 08:23:33;;;;;;;16.98;4.28;;;563.60;1817.60;;;;;;5039483;28;20502;-62
2021/08/31 08:25:59;;;;;;;38.00;4.88;;;563.60;1817.60;;;;;;5057497;28;20021;-68
2021/08/31 08:28:25;;;;;;;28.63;3.67;;;563.70;1792.00;;;;;;5057212;28;20064;-67
2021/08/31 08:30:52;;;;;;;31.27;4.45;;;563.80;1792.00;;;;;;5057390;28;20406;-66
2021/08/31 08:33:19;;;;;;;24.60;4.30;;;564.00;1766.40;;;;;;5057337;28;20020;-69
2021/08/31 08:35:47;;;;;;;30.70;4.60;;;564.10;1766.40;;;;;;5057331;28;20020;-69
2021/08/31 08:38:13;;;;;;;18.20;4.35;;;564.10;1766.40;;;;;;5057072;28;20033;-69
2021/08/31 08:40:39;;;;;;;18.65;3.13;;;564.10;1766.40;;;;;;5057043;28;20037;-68
2021/08/31 08:43:06;;;;;;;12.40;3.15;;;588.80;1740.80;;;;;;5057096;28;20033;-68
2021/08/31 08:45:33;;;;;;;14.38;2.88;;;588.90;1740.80;;;;;;5038378;28;20395;-68
2021/08/31 08:47:59;;;;;;;13.57;2.53;;;589.20;1689.60;;;;;;5056909;28;20025;-69
2021/08/31 08:50:26;;;;;;;31.50;4.03;;;589.60;1638.40;;;;;;5056975;28;20032;-70
2021/08/31 08:52:52;;;;;;;29.92;4.30;;;614.50;1612.80;;;;;;5056761;28;20021;-72
2021/08/31 08:55:17;;;;;;;8.52;2.67;;;614.80;1612.80;;;;;;5056710;28;20422;-69
2021/08/31 08:57:44;;;;;;;5.07;2.22;;;615.10;1587.20;;;;;;5039152;28;20017;-66
2021/08/31 09:00:11;;;;;;;8.38;1.75;;;640.00;1561.60;;;;;;5056763;28;20484;-70
2021/08/31 09:02:39;;;;;;;54.20;5.93;;;640.20;1510.40;;;;;;5056888;28;20020;-68
2021/08/31 09:05:10;;;;;;;66.97;5.32;;;640.50;1484.80;;;;;;5056857;28;20117;-68
2021/08/31 09:07:38;;;;;;;64.72;4.75;;;640.80;1433.60;;;;;;5056652;28;20071;-70
2021/08/31 09:10:20;;;;;;;35.85;4.07;;;665.70;1433.60;;;;;;5056617;28;20092;-67
2021/08/31 09:12:48;;;;;;;9.68;1.60;;;665.80;1382.40;;;;;;5056594;28;20032;-73
2021/08/31 09:15:30;;;;;;;3.88;1.30;;;666.10;1331.20;;;;;;5056428;28;20068;-73
2021/08/31 09:18:05;;;;;;;7.55;1.88;;;666.40;1305.60;;;;;;5056321;28;20100;-73
2021/08/31 09:20:55;;;;;;;3.42;1.67;;;691.20;1280.00;;;;;;5056472;28;20036;-73
2021/08/31 09:23:48;;;;;;;2.47;1.40;;;691.40;1254.40;;;;;;5038615;28;20025;-73
2021/08/31 09:26:18;;;;;;;1.77;1.30;;;691.50;1254.40;;;;;;5056228;28;20020;-73
2021/08/31 09:28:45;;;;;;;4.57;1.65;;;691.80;1228.80;;;;;;5055801;28;20025;-73
2021/08/31 09:31:20;;;;;;;3.90;1.17;;;691.90;1203.20;;;;;;5054383;28;20024;-73
2021/08/31 09:33:49;;;;;;;4.55;1.63;;;692.10;1203.20;;;;;;5055030;28;20017;-73
2021/08/31 09:36:18;;;;;;;4.50;1.50;;;716.90;1203.20;;;;;;5036764;28;20044;-73
2021/08/31 09:38:49;;;;;;;2.95;1.50;;;717.00;1203.20;;;;;;5036350;28;20033;-73
2021/08/31 09:41:32;;;;;;;4.05;1.05;;;717.20;1177.60;;;;;;5054663;28;20028;-74
2021/08/31 09:43:59;;;;;;;3.15;1.30;;;717.20;1177.60;;;;;;5054219;28;20033;-73
2021/08/31 09:46:48;;;;;;;2.20;1.40;;;716.90;1177.60;;;;;;5052486;28;20021;-74
2021/08/31 09:49:27;;;;;;;2.50;1.40;;;716.80;1177.60;;;;;;5054462;28;20024;-74
2021/08/31 09:52:10;;;;;;;2.55;1.42;;;716.90;1177.60;;;;;;5053020;28;20047;-74
2021/08/31 09:54:45;;;;;;;4.50;1.38;;;717.10;1152.00;;;;;;5054260;28;20118;-74
2021/08/31 09:57:38;;;;;;;3.28;1.73;;;717.20;1152.00;;;;;;5055587;28;20409;-74
2021/08/31 10:00:10;;;;;;;1.83;1.33;;;717.00;1177.60;;;;;;5037099;28;20051;-74
2021/08/31 10:02:36;;;;;;;1.67;1.40;;;717.10;1152.00;;;;;;5055623;28;20426;-74
2021/08/31 10:05:05;;;;;;;2.40;1.60;;;716.90;1152.00;;;;;;5055622;28;20385;-74
2021/08/31 10:07:31;;;;;;;1.90;1.30;;;692.10;1152.00;;;;;;5055494;28;20049;-74
2021/08/31 10:09:59;;;;;;;2.80;1.60;;;692.00;1152.00;;;;;;5055465;28;20082;-74
2021/08/31 10:12:29;;;;;;;2.67;1.60;;;691.70;1177.60;;;;;;5037388;28;20072;-74
2021/08/31 10:14:57;;;;;;;3.30;1.55;;;691.60;1177.60;;;;;;5054920;28;20033;-74
2021/08/31 10:17:29;;;;;;;7.28;1.42;;;691.60;1177.60;;;;;;5054284;28;20025;-74
2021/08/31 10:19:59;;;;;;;4.22;1.85;;;692.00;1177.60;;;;;;5051517;28;20017;-74
2021/08/31 10:22:26;;;;;;;6.72;1.40;;;691.90;1177.60;;;;;;5054617;28;20029;-74
2021/08/31 10:24:53;;;;;;;2.22;1.55;;;691.70;1177.60;;;;;;5054317;28;20092;-73
2021/08/31 10:27:40;;;;;;;2.97;1.67;;;691.30;1177.60;;;;;;5053017;28;20025;-75
2021/08/31 10:30:20;;;;;;;3.30;1.80;;;666.30;1203.20;;;;;;5052955;28;20059;-74
2021/08/31 10:32:54;;;;;;;1.63;1.38;;;666.00;1228.80;;;;;;5052969;28;20017;-73
2021/08/31 10:35:35;;;;;;;1.23;1.13;;;665.70;1254.40;;;;;;5034005;28;20032;-73
2021/08/31 10:38:03;;;;;;;1.70;1.50;;;640.80;1228.80;;;;;;5051956;28;20031;-74
2021/08/31 10:40:42;;;;;;;2.33;1.60;;;640.70;1254.40;;;;;;5053209;28;20037;-75
2021/08/31 10:43:11;;;;;;;6.75;1.60;;;640.50;1280.00;;;;;;5051242;28;20024;-74
2021/08/31 10:45:51;;;;;;;3.45;1.58;;;640.50;1280.00;;;;;;5053721;28;20475;-74
2021/08/31 10:48:57;;;;;;;4.00;1.52;;;640.70;1305.60;;;;;;5051808;28;20036;-74
2021/08/31 10:51:23;;;;;;;3.38;1.20;;;640.80;1280.00;;;;;;5052269;28;20032;-68
2021/08/31 10:53:49;;;;;;;2.42;1.35;;;640.80;1280.00;;;;;;5050049;28;20029;-68
2021/08/31 10:56:21;;;;;;;1.95;1.38;;;665.60;1305.60;;;;;;5054007;28;20379;-68
2021/08/31 10:58:58;;;;;;;3.58;1.17;;;665.80;1280.00;;;;;;5033866;28;20120;-68
2021/08/31 11:01:27;;;;;;;1.58;1.17;;;666.00;1280.00;;;;;;5052112;28;20064;-68
2021/08/31 11:03:55;;;;;;;3.42;1.00;;;666.00;1280.00;;;;;;5035392;28;20040;-69
2021/08/31 11:06:26;;;;;;;3.33;1.30;;;665.80;1280.00;;;;;;5052745;28;20116;-69
2021/08/31 11:09:11;;;;;;;2.83;1.23;;;665.70;1280.00;;;;;;5035689;28;20025;-68
2021/08/31 11:11:43;;;;;;;4.32;1.35;;;640.90;1254.40;;;;;;5035883;28;20037;-68
2021/08/31 11:14:10;;;;;;;1.85;1.50;;;640.70;1280.00;;;;;;5034602;28;20040;-68
2021/08/31 11:16:37;;;;;;;3.15;1.50;;;640.50;1280.00;;;;;;5036005;28;20025;-69
2021/08/31 11:19:05;;;;;;;4.00;1.65;;;640.30;1305.60;;;;;;5053719;28;20024;-68
2021/08/31 11:21:45;;;;;;;3.35;1.60;;;640.20;1305.60;;;;;;5053127;28;20041;-68
2021/08/31 11:24:11;;;;;;;4.95;1.27;;;640.00;1331.20;;;;;;5053646;28;20437;-68
2021/08/31 11:26:37;;;;;;;2.30;1.52;;;615.30;1356.80;;;;;;5053429;28;20049;-68
2021/08/31 11:29:11;;;;;;;8.88;2.22;;;615.20;1356.80;;;;;;5046315;28;20055;-67
2021/08/31 11:31:37;;;;;;;5.75;1.50;;;615.20;1356.80;;;;;;5048543;28;20355;-68
2021/08/31 11:34:10;;;;;;;1.55;1.25;;;640.10;1356.80;;;;;;5035527;28;20024;-68
2021/08/31 11:36:41;;;;;;;2.05;1.35;;;640.30;1356.80;;;;;;5053269;28;20025;-68
2021/08/31 11:39:10;;;;;;;1.95;1.20;;;640.70;1331.20;;;;;;5046031;28;20090;-68
2021/08/31 11:41:39;;;;;;;1.33;1.23;;;640.80;1280.00;;;;;;5028926;28;20473;-68
2021/08/31 11:44:18;;;;;;;2.25;1.20;;;665.80;1305.60;;;;;;5053108;28;20115;-68
2021/08/31 11:46:45;;;;;;;1.95;1.25;;;666.20;1254.40;;;;;;5053268;28;20032;-68
2021/08/31 11:49:21;;;;;;;1.75;1.25;;;666.50;1203.20;;;;;;5034823;28;20021;-68
2021/08/31 11:52:15;;;;;;;2.20;1.10;;;691.40;1177.60;;;;;;5034764;28;20391;-68
2021/08/31 11:54:43;;;;;;;1.73;1.20;;;691.50;1177.60;;;;;;5051858;28;20029;-68
2021/08/31 11:57:10;;;;;;;2.33;1.13;;;691.70;1203.20;;;;;;5026789;28;20049;-68
2021/08/31 11:59:47;;;;;;;0.80;0.80;;;692.00;1126.40;;;;;;5032483;28;20100;-68
2021/08/31 12:02:16;;;;;;;1.10;1.00;;;716.80;1126.40;;;;;;5014671;28;20132;-68
2021/08/31 12:05:05;;;;;;;2.63;0.90;;;717.10;1126.40;;;;;;5033631;28;20017;-68
2021/08/31 12:07:38;;;;;;;1.98;0.80;;;717.00;1100.80;;;;;;5031178;28;20041;-68
2021/08/31 12:10:09;;;;;;;2.95;0.90;;;716.80;1126.40;;;;;;5033498;28;20032;-68
2021/08/31 12:12:37;;;;;;;1.88;1.00;;;716.80;1126.40;;;;;;5033275;28;20053;-68
2021/08/31 12:15:04;;;;;;;0.65;0.65;;;717.10;1100.80;;;;;;5032492;28;20038;-68